createdAt,value
2023-01-13T00:01:14.889Z,8.80
2023-01-13T00:03:41.627Z,8.80
2023-01-13T00:06:09.634Z,8.70
2023-01-13T00:08:37.139Z,8.70
2023-01-13T00:11:04.761Z,8.60
2023-01-13T00:13:35.520Z,8.70
2023-01-13T00:16:04.703Z,8.50
2023-01-13T00:18:31.827Z,8.70
2023-01-13T00:21:02.461Z,8.60
2023-01-13T00:23:31.458Z,8.60
2023-01-13T00:25:58.877Z,8.60
2023-01-13T00:28:27.015Z,8.60
2023-01-13T00:30:54.441Z,8.60
2023-01-13T00:33:21.347Z,8.60
2023-01-13T00:35:57.870Z,8.60
2023-01-13T00:38:24.665Z,8.60
2023-01-13T00:41:01.747Z,8.60
2023-01-13T00:43:29.000Z,8.60
2023-01-13T00:45:56.175Z,8.60
2023-01-13T00:48:23.347Z,8.60
2023-01-13T00:50:56.911Z,8.50
2023-01-13T00:53:23.747Z,8.60
2023-01-13T00:55:51.315Z,8.50
2023-01-13T00:58:18.292Z,9.00
2023-01-13T01:00:46.027Z,8.50
2023-01-13T01:03:12.971Z,8.50
2023-01-13T01:05:39.959Z,8.50
2023-01-13T01:08:06.948Z,8.50
2023-01-13T01:10:34.134Z,8.50
2023-01-13T01:13:01.221Z,8.50
2023-01-13T01:15:28.110Z,8.40
2023-01-13T01:17:54.904Z,8.40
2023-01-13T01:20:22.269Z,8.40
2023-01-13T01:22:49.769Z,8.30
2023-01-13T01:25:16.686Z,8.40
2023-01-13T01:27:43.400Z,8.40
2023-01-13T01:30:11.058Z,8.40
2023-01-13T01:32:37.927Z,8.40
2023-01-13T01:35:05.286Z,8.40
2023-01-13T01:37:32.307Z,8.40
2023-01-13T01:39:59.187Z,8.40
2023-01-13T01:42:45.066Z,8.30
2023-01-13T01:45:18.866Z,8.30
2023-01-13T01:47:46.856Z,8.30
2023-01-13T01:50:13.686Z,8.30
2023-01-13T01:52:41.432Z,8.30
2023-01-13T01:55:09.991Z,8.30
2023-01-13T01:57:42.319Z,8.20
2023-01-13T02:00:09.455Z,8.20
2023-01-13T02:02:36.280Z,8.20
2023-01-13T02:05:03.055Z,8.20
2023-01-13T02:07:31.137Z,8.10
2023-01-13T02:09:58.963Z,8.10
2023-01-13T02:12:35.014Z,8.10
2023-01-13T02:15:11.867Z,8.10
2023-01-13T02:17:44.921Z,8.10
2023-01-13T02:20:27.205Z,7.90
2023-01-13T02:23:00.020Z,8.10
2023-01-13T02:25:26.863Z,8.10
2023-01-13T02:27:54.945Z,8.10
2023-01-13T02:30:55.906Z,8.10
2023-01-13T02:33:26.094Z,8.10
2023-01-13T02:35:52.800Z,8.10
2023-01-13T02:38:21.075Z,8.10
2023-01-13T02:41:32.696Z,8.10
2023-01-13T02:44:10.761Z,8.10
2023-01-13T02:46:45.851Z,8.10
2023-01-13T02:49:14.925Z,8.10
2023-01-13T02:51:41.758Z,8.10
2023-01-13T02:54:09.656Z,8.10
2023-01-13T02:56:37.990Z,8.10
2023-01-13T02:59:05.252Z,8.10
2023-01-13T03:01:32.126Z,8.10
2023-01-13T03:03:59.060Z,8.10
2023-01-13T03:06:44.835Z,8.40
2023-01-13T03:09:14.829Z,8.10
2023-01-13T03:12:08.008Z,8.10
2023-01-13T03:14:50.211Z,8.10
2023-01-13T03:17:21.592Z,8.10
2023-01-13T03:19:58.564Z,8.10
2023-01-13T03:22:36.144Z,8.10
2023-01-13T03:25:13.846Z,8.10
2023-01-13T03:27:40.672Z,8.10
2023-01-13T03:30:08.373Z,8.10
2023-01-13T03:32:35.935Z,8.10
2023-01-13T03:35:13.507Z,8.10
2023-01-13T03:37:41.462Z,8.10
2023-01-13T03:40:11.500Z,8.10
2023-01-13T03:42:38.202Z,8.10
2023-01-13T03:45:10.379Z,8.10
2023-01-13T03:47:41.653Z,8.10
2023-01-13T03:50:08.617Z,8.10
2023-01-13T03:52:37.798Z,8.10
2023-01-13T03:55:18.762Z,8.10
2023-01-13T03:57:49.863Z,8.10
2023-01-13T04:00:17.067Z,8.10
2023-01-13T04:02:46.177Z,8.10
2023-01-13T04:05:16.031Z,8.10
2023-01-13T04:07:55.010Z,8.10
2023-01-13T04:10:24.802Z,8.10
2023-01-13T04:13:02.008Z,8.10
2023-01-13T04:15:29.979Z,8.00
2023-01-13T04:18:10.781Z,8.10
2023-01-13T04:20:37.827Z,8.00
2023-01-13T04:23:04.650Z,8.20
2023-01-13T04:25:31.481Z,8.20
2023-01-13T04:27:58.512Z,8.20
2023-01-13T04:30:25.210Z,8.30
2023-01-13T04:32:52.000Z,8.30
2023-01-13T04:35:18.749Z,8.30
2023-01-13T04:37:45.619Z,8.20
2023-01-13T04:40:12.414Z,8.20
2023-01-13T04:42:39.160Z,8.20
2023-01-13T04:45:06.209Z,8.10
2023-01-13T04:47:33.255Z,8.10
2023-01-13T04:50:00.048Z,8.10
2023-01-13T04:52:26.755Z,8.00
2023-01-13T04:54:53.570Z,8.00
2023-01-13T04:57:20.562Z,8.00
2023-01-13T04:59:47.313Z,8.00
2023-01-13T05:02:20.001Z,8.00
2023-01-13T05:04:47.539Z,8.00
2023-01-13T05:07:14.813Z,7.90
2023-01-13T05:09:41.605Z,8.00
2023-01-13T05:12:28.201Z,7.90
2023-01-13T05:15:13.586Z,8.00
2023-01-13T05:17:40.575Z,7.90
2023-01-13T05:20:07.569Z,8.00
2023-01-13T05:22:53.164Z,8.00
2023-01-13T05:25:22.883Z,8.00
2023-01-13T05:27:49.625Z,8.00
2023-01-13T05:30:16.859Z,8.00
2023-01-13T05:32:43.650Z,8.00
2023-01-13T05:35:10.468Z,8.00
2023-01-13T05:37:37.180Z,8.00
2023-01-13T05:40:22.988Z,8.00
2023-01-13T05:43:18.620Z,8.00
2023-01-13T05:45:46.670Z,8.10
2023-01-13T05:48:14.012Z,8.10
2023-01-13T05:50:40.854Z,8.10
2023-01-13T05:53:07.596Z,8.60
2023-01-13T05:55:34.542Z,8.10
2023-01-13T05:58:01.409Z,8.10
2023-01-13T06:00:28.410Z,8.10
2023-01-13T06:02:55.095Z,8.00
2023-01-13T06:05:21.976Z,8.00
2023-01-13T06:07:48.762Z,8.00
2023-01-13T06:10:16.031Z,8.00
2023-01-13T06:12:46.422Z,8.00
2023-01-13T06:15:13.338Z,8.20
2023-01-13T06:17:40.536Z,7.90
2023-01-13T06:20:09.344Z,7.90
2023-01-13T06:22:38.434Z,7.90
2023-01-13T06:25:08.693Z,7.90
2023-01-13T06:27:35.693Z,7.90
2023-01-13T06:30:02.584Z,7.90
2023-01-13T06:32:34.649Z,7.90
2023-01-13T06:35:05.510Z,8.10
2023-01-13T06:37:33.036Z,7.90
2023-01-13T06:40:00.179Z,8.00
2023-01-13T06:42:49.636Z,8.00
2023-01-13T06:45:16.560Z,8.00
2023-01-13T06:47:44.242Z,8.30
2023-01-13T06:50:11.540Z,8.40
2023-01-13T06:52:38.634Z,8.00
2023-01-13T06:55:05.980Z,8.00
2023-01-13T06:57:33.116Z,8.10
2023-01-13T06:59:59.984Z,8.30
2023-01-13T07:02:28.394Z,8.10
2023-01-13T07:04:55.485Z,8.10
2023-01-13T07:07:22.550Z,8.10
2023-01-13T07:09:49.737Z,8.10
2023-01-13T07:12:16.579Z,8.10
2023-01-13T07:15:02.238Z,8.10
2023-01-13T07:17:29.068Z,8.40
2023-01-13T07:19:56.279Z,8.20
2023-01-13T07:22:25.134Z,8.20
2023-01-13T07:24:51.901Z,8.20
2023-01-13T07:27:22.882Z,8.20
2023-01-13T07:29:51.895Z,8.20
2023-01-13T07:32:18.632Z,8.40
2023-01-13T07:34:47.444Z,8.20
2023-01-13T07:37:23.004Z,8.20
2023-01-13T07:39:50.778Z,8.20
2023-01-13T07:42:37.233Z,8.60
2023-01-13T07:45:06.099Z,8.20
2023-01-13T07:47:33.065Z,8.20
2023-01-13T07:49:59.945Z,8.10
2023-01-13T07:52:27.054Z,8.10
2023-01-13T07:54:53.922Z,8.10
2023-01-13T07:57:20.788Z,8.10
2023-01-13T07:59:47.794Z,8.10
2023-01-13T08:02:14.945Z,8.10
2023-01-13T08:04:42.389Z,9.30
2023-01-13T08:07:09.349Z,8.10
2023-01-13T08:09:38.043Z,8.30
2023-01-13T08:12:23.525Z,8.20
2023-01-13T08:14:52.043Z,8.20
2023-01-13T08:17:20.547Z,8.20
2023-01-13T08:19:47.963Z,8.30
2023-01-13T08:22:14.937Z,8.40
2023-01-13T08:24:42.156Z,8.30
2023-01-13T08:27:09.319Z,8.20
2023-01-13T08:29:36.272Z,8.20
2023-01-13T08:32:03.124Z,8.20
2023-01-13T08:34:30.029Z,8.20
2023-01-13T08:36:56.891Z,8.20
2023-01-13T08:39:24.625Z,8.20
2023-01-13T08:41:59.361Z,8.20
2023-01-13T08:44:27.560Z,8.20
2023-01-13T08:46:56.758Z,8.20
2023-01-13T08:49:24.719Z,8.20
2023-01-13T08:51:54.457Z,8.10
2023-01-13T08:54:21.360Z,8.30
2023-01-13T08:56:48.267Z,8.30
2023-01-13T08:59:15.898Z,8.30
2023-01-13T09:01:42.985Z,8.30
2023-01-13T09:04:20.204Z,8.40
2023-01-13T09:06:47.471Z,8.30
2023-01-13T09:09:14.507Z,8.40
2023-01-13T09:12:03.763Z,8.40
2023-01-13T09:14:31.324Z,8.70
2023-01-13T09:16:58.737Z,8.50
2023-01-13T09:19:26.163Z,8.70
2023-01-13T09:21:53.186Z,8.50
2023-01-13T09:24:20.149Z,8.60
2023-01-13T09:26:46.979Z,8.60
2023-01-13T09:29:14.015Z,9.60
2023-01-13T09:31:44.370Z,8.70
2023-01-13T09:34:33.533Z,8.90
2023-01-13T09:37:00.561Z,8.70
2023-01-13T09:39:27.453Z,8.80
2023-01-13T09:42:28.343Z,8.80
2023-01-13T09:44:57.998Z,8.80
2023-01-13T09:47:30.328Z,8.90
2023-01-13T09:49:59.966Z,8.90
2023-01-13T09:52:29.293Z,8.90
2023-01-13T09:54:59.153Z,8.90
2023-01-13T09:57:26.312Z,9.20
2023-01-13T09:59:53.793Z,9.00
2023-01-13T10:02:40.502Z,9.10
2023-01-13T10:05:17.164Z,9.10
2023-01-13T10:07:48.049Z,9.20
2023-01-13T10:10:20.898Z,9.20
2023-01-13T10:13:06.339Z,9.70
2023-01-13T10:15:33.595Z,9.30
2023-01-13T10:18:04.553Z,9.40
2023-01-13T10:20:34.912Z,9.40
2023-01-13T10:23:21.479Z,9.40
2023-01-13T10:26:06.991Z,9.40
2023-01-13T10:28:33.753Z,9.50
2023-01-13T10:31:01.096Z,9.90
2023-01-13T10:33:28.716Z,9.60
2023-01-13T10:35:57.893Z,10.00
2023-01-13T10:38:26.095Z,9.70
2023-01-13T10:40:53.167Z,9.70
2023-01-13T10:43:20.073Z,9.80
2023-01-13T10:45:57.969Z,9.80
2023-01-13T10:48:31.780Z,9.80
2023-01-13T10:50:59.059Z,9.90
2023-01-13T10:53:25.905Z,10.00
2023-01-13T10:56:00.299Z,9.90
2023-01-13T10:58:28.190Z,10.00
2023-01-13T11:01:03.157Z,10.10
2023-01-13T11:03:43.350Z,10.10
2023-01-13T11:06:10.197Z,10.20
2023-01-13T11:08:46.803Z,10.30
2023-01-13T11:11:27.431Z,10.20
2023-01-13T11:14:14.189Z,10.20
2023-01-13T11:16:52.798Z,10.20
2023-01-13T11:19:20.226Z,10.20
2023-01-13T11:22:01.715Z,10.30
2023-01-13T11:24:41.172Z,10.30
2023-01-13T11:27:26.993Z,10.30
2023-01-13T11:30:03.292Z,10.30
2023-01-13T11:32:31.521Z,10.30
2023-01-13T11:35:00.986Z,10.30
2023-01-13T11:37:29.502Z,10.30
2023-01-13T11:40:05.841Z,10.40
2023-01-13T11:42:36.688Z,10.50
2023-01-13T11:45:05.977Z,10.50
2023-01-13T11:47:33.027Z,10.50
2023-01-13T11:49:59.950Z,10.50
2023-01-13T11:52:28.179Z,10.60
2023-01-13T11:55:16.108Z,10.60
2023-01-13T11:57:49.356Z,10.70
2023-01-13T12:00:16.140Z,10.70
2023-01-13T12:02:42.845Z,10.70
2023-01-13T12:05:28.013Z,10.70
2023-01-13T12:07:58.558Z,10.70
2023-01-13T12:10:44.260Z,10.70
2023-01-13T12:13:15.585Z,10.70
2023-01-13T12:16:05.992Z,10.80
2023-01-13T12:18:51.729Z,10.80
2023-01-13T12:21:22.671Z,10.90
2023-01-13T12:23:56.064Z,10.80
2023-01-13T12:26:22.897Z,11.00
2023-01-13T12:28:52.228Z,11.00
2023-01-13T12:31:19.206Z,11.10
2023-01-13T12:34:01.727Z,11.10
2023-01-13T12:36:34.859Z,11.20
2023-01-13T12:39:19.469Z,11.20
2023-01-13T12:42:12.506Z,11.10
2023-01-13T12:44:59.289Z,11.00
2023-01-13T12:47:36.087Z,11.00
2023-01-13T12:50:23.771Z,11.00
2023-01-13T12:52:51.184Z,11.00
2023-01-13T12:55:23.988Z,11.00
2023-01-13T12:57:57.102Z,10.90
2023-01-13T13:00:23.893Z,11.00
2023-01-13T13:03:10.519Z,11.00
2023-01-13T13:05:56.928Z,11.00
2023-01-13T13:08:30.307Z,11.00
2023-01-13T13:11:07.595Z,10.90
2023-01-13T13:14:00.963Z,10.90
2023-01-13T13:16:29.036Z,10.90
2023-01-13T13:19:14.963Z,11.00
2023-01-13T13:22:00.659Z,11.00
2023-01-13T13:24:27.439Z,11.10
2023-01-13T13:26:54.250Z,11.10
2023-01-13T13:29:27.174Z,11.50
2023-01-13T13:31:57.092Z,11.10
2023-01-13T13:34:39.371Z,11.10
2023-01-13T13:37:26.200Z,11.10
2023-01-13T13:40:11.841Z,11.10
2023-01-13T13:42:59.783Z,11.10
2023-01-13T13:45:45.415Z,11.00
2023-01-13T13:48:22.604Z,11.10
2023-01-13T13:50:50.767Z,11.00
2023-01-13T13:53:18.500Z,11.10
2023-01-13T13:55:55.173Z,11.20
2023-01-13T13:58:21.883Z,11.20
2023-01-13T14:00:49.473Z,11.20
2023-01-13T14:03:21.646Z,11.20
2023-01-13T14:05:55.654Z,11.00
2023-01-13T14:08:22.458Z,11.10
2023-01-13T14:10:51.968Z,11.10
2023-01-13T14:13:23.160Z,11.10
2023-01-13T14:15:51.153Z,11.10
2023-01-13T14:18:18.986Z,11.10
2023-01-13T14:21:06.084Z,11.10
2023-01-13T14:23:33.438Z,11.20
2023-01-13T14:26:04.434Z,11.10
2023-01-13T14:28:35.782Z,11.10
2023-01-13T14:31:02.816Z,11.10
2023-01-13T14:33:35.142Z,11.20
2023-01-13T14:36:13.443Z,11.20
2023-01-13T14:38:40.444Z,11.20
2023-01-13T14:41:11.273Z,11.20
2023-01-13T14:43:42.290Z,11.20
2023-01-13T14:46:09.250Z,11.20
2023-01-13T14:48:36.341Z,11.20
2023-01-13T14:51:05.816Z,11.20
2023-01-13T14:53:40.015Z,11.20
2023-01-13T14:56:27.081Z,11.10
2023-01-13T14:58:55.461Z,11.10
2023-01-13T15:01:26.605Z,11.10
2023-01-13T15:03:53.711Z,11.00
2023-01-13T15:06:29.818Z,11.10
2023-01-13T15:08:56.929Z,11.10
2023-01-13T15:11:25.779Z,11.10
2023-01-13T15:13:59.567Z,11.10
2023-01-13T15:16:26.741Z,11.10
2023-01-13T15:18:57.821Z,11.00
2023-01-13T15:21:25.418Z,11.00
2023-01-13T15:23:52.485Z,10.90
2023-01-13T15:26:23.554Z,10.80
2023-01-13T15:28:50.368Z,10.70
2023-01-13T15:31:17.344Z,10.70
2023-01-13T15:33:44.285Z,10.60
2023-01-13T15:36:22.046Z,10.60
2023-01-13T15:38:49.025Z,10.50
2023-01-13T15:41:15.897Z,10.40
2023-01-13T15:44:01.325Z,10.80
2023-01-13T15:46:40.326Z,10.30
2023-01-13T15:49:12.951Z,10.30
2023-01-13T15:51:40.309Z,10.20
2023-01-13T15:54:07.733Z,10.20
2023-01-13T15:56:36.280Z,10.10
2023-01-13T15:59:04.298Z,10.10
2023-01-13T16:01:31.188Z,9.90
2023-01-13T16:03:57.914Z,10.20
2023-01-13T16:06:27.935Z,10.00
2023-01-13T16:08:54.793Z,9.90
2023-01-13T16:11:21.568Z,9.90
2023-01-13T16:13:48.422Z,9.90
2023-01-13T16:16:20.015Z,9.90
2023-01-13T16:18:46.868Z,9.80
2023-01-13T16:21:14.126Z,9.80
2023-01-13T16:23:41.181Z,9.70
2023-01-13T16:26:10.918Z,9.70
2023-01-13T16:28:37.746Z,9.60
2023-01-13T16:31:15.153Z,9.60
2023-01-13T16:33:41.986Z,9.60
2023-01-13T16:36:17.360Z,9.60
2023-01-13T16:38:44.187Z,9.60
2023-01-13T16:41:10.951Z,9.60
2023-01-13T16:43:37.883Z,9.50
2023-01-13T16:46:18.675Z,9.60
2023-01-13T16:48:45.712Z,9.50
2023-01-13T16:51:14.618Z,9.50
2023-01-13T16:53:41.535Z,9.50
2023-01-13T16:56:20.582Z,9.50
2023-01-13T16:58:48.095Z,9.50
2023-01-13T17:01:25.359Z,9.50
2023-01-13T17:03:52.576Z,9.40
2023-01-13T17:06:20.540Z,9.40
2023-01-13T17:08:47.767Z,9.40
2023-01-13T17:11:14.553Z,9.40
2023-01-13T17:13:41.749Z,9.40
2023-01-13T17:16:15.864Z,9.40
2023-01-13T17:18:42.810Z,9.40
2023-01-13T17:21:09.541Z,9.30
2023-01-13T17:23:36.303Z,9.30
2023-01-13T17:26:03.233Z,9.20
2023-01-13T17:28:30.899Z,9.20
2023-01-13T17:30:57.684Z,9.40
2023-01-13T17:33:24.531Z,9.10
2023-01-13T17:36:02.787Z,9.00
2023-01-13T17:38:29.686Z,9.00
2023-01-13T17:41:01.029Z,8.90
2023-01-13T17:43:27.928Z,8.90
2023-01-13T17:45:57.872Z,8.90
2023-01-13T17:48:24.946Z,8.80
2023-01-13T17:50:54.205Z,8.50
2023-01-13T17:53:24.069Z,8.80
2023-01-13T17:55:52.364Z,8.70
2023-01-13T17:58:19.804Z,8.70
2023-01-13T18:00:46.883Z,8.60
2023-01-13T18:03:16.322Z,8.60
2023-01-13T18:05:44.879Z,8.60
2023-01-13T18:10:57.237Z,8.30
2023-01-13T18:16:11.839Z,8.30
2023-01-13T18:18:46.304Z,8.30
2023-01-13T18:21:40.633Z,8.30
2023-01-13T18:24:29.907Z,8.30
2023-01-13T18:27:16.591Z,8.00
2023-01-13T18:29:44.525Z,8.30
2023-01-13T18:37:38.175Z,8.20
2023-01-13T18:51:47.513Z,8.00
2023-01-13T18:54:21.843Z,8.00
2023-01-13T18:56:50.573Z,8.00
2023-01-13T19:01:55.664Z,8.00
2023-01-13T19:15:27.845Z,7.80
2023-01-13T19:17:55.303Z,8.00
2023-01-13T19:20:22.525Z,7.80
2023-01-13T19:22:58.570Z,7.80
2023-01-13T19:25:28.875Z,7.80
2023-01-13T19:28:03.065Z,7.80
2023-01-13T19:30:30.855Z,7.80
2023-01-13T19:33:01.600Z,7.70
2023-01-13T19:35:28.756Z,7.90
2023-01-13T19:37:57.202Z,7.60
2023-01-13T19:40:36.185Z,7.70
2023-01-13T19:43:22.689Z,7.90
2023-01-13T19:45:53.158Z,7.70
2023-01-13T19:48:23.578Z,7.60
2023-01-13T19:53:34.005Z,7.90
2023-01-13T20:01:41.642Z,7.70
2023-01-13T20:21:30.457Z,7.50
2023-01-13T20:23:57.341Z,6.50
2023-01-13T20:26:24.152Z,7.50
2023-01-13T20:28:51.541Z,7.30
2023-01-13T20:31:22.384Z,7.50
2023-01-13T20:33:49.488Z,7.40
2023-01-13T20:36:27.735Z,7.50
2023-01-13T20:39:03.939Z,7.50
2023-01-13T20:41:49.555Z,7.40
2023-01-13T20:44:16.637Z,7.40
2023-01-13T20:46:45.682Z,7.40
2023-01-13T20:49:13.254Z,7.50
2023-01-13T20:54:51.728Z,7.50
2023-01-13T20:57:21.421Z,7.50
2023-01-13T20:59:55.526Z,7.50
2023-01-13T21:02:24.672Z,7.60
2023-01-13T21:05:10.743Z,7.60
2023-01-13T21:13:41.556Z,7.70
2023-01-13T21:16:10.070Z,8.20
2023-01-13T21:18:58.035Z,8.60
2023-01-13T21:21:28.094Z,7.60
2023-01-13T21:23:54.896Z,7.60
2023-01-13T21:26:23.274Z,7.60
2023-01-13T21:28:51.053Z,7.50
2023-01-13T21:31:18.634Z,8.10
2023-01-13T21:51:55.619Z,7.30
2023-01-13T21:54:26.343Z,6.40
2023-01-13T22:02:51.063Z,7.20
2023-01-13T22:05:33.687Z,7.20
2023-01-13T22:11:03.029Z,7.10
2023-01-13T22:13:49.431Z,7.20
2023-01-13T22:16:20.399Z,7.10
2023-01-13T22:18:51.562Z,7.10
2023-01-13T22:21:36.379Z,7.20
2023-01-13T22:24:04.754Z,7.60
2023-01-13T22:26:35.816Z,8.20
2023-01-13T22:29:03.308Z,7.20
2023-01-13T22:31:32.359Z,7.30
2023-01-13T22:33:59.610Z,7.20
2023-01-13T22:36:33.048Z,8.10
2023-01-13T22:39:03.016Z,6.80
2023-01-13T22:41:33.877Z,7.30
2023-01-13T22:44:14.000Z,7.40
2023-01-13T22:46:44.054Z,7.40
2023-01-13T22:49:23.050Z,7.50
2023-01-13T22:52:21.756Z,7.50
2023-01-13T22:54:53.046Z,8.10
2023-01-13T22:57:21.885Z,7.60
2023-01-13T22:59:55.846Z,7.60
2023-01-13T23:02:27.967Z,7.70
2023-01-13T23:05:37.494Z,7.60
2023-01-13T23:07:58.808Z,7.70
2023-01-13T23:10:26.265Z,7.70
2023-01-13T23:13:10.230Z,7.70
2023-01-13T23:15:59.541Z,7.80
2023-01-13T23:18:29.970Z,7.80
2023-01-13T23:21:05.650Z,7.80
2023-01-13T23:23:34.133Z,7.80
2023-01-13T23:26:07.954Z,7.80
2023-01-13T23:28:43.922Z,7.50
2023-01-13T23:36:53.276Z,7.90
2023-01-13T23:39:20.299Z,8.00
2023-01-13T23:41:47.281Z,8.00
2023-01-13T23:44:39.829Z,7.80
2023-01-13T23:47:09.838Z,8.10
2023-01-13T23:49:39.815Z,8.10
2023-01-13T23:52:06.766Z,8.20
2023-01-13T23:54:38.725Z,8.30
2023-01-13T23:57:05.896Z,8.40
2023-01-13T23:59:36.523Z,8.30
